Tygh Valley, Oregon
Current Conditions -  °F | °C
As of 11:53 PM on Monday 26 Jan 2015 (Local Time) from KDLS Reporting Station
Overcast Overcast  
Wind Chill: 41°   Ceiling: 500
Heat Index: 41°   Visibility: 8mi
Dew Point: 39°   Wind: 0mph
Humidity: 93%   Direction: NA
Pressure: 30.05"   Gusts: NA
Location:  45.25°N, 121.18°W
Report Text: KDLS 270753Z AUTO 00000KT 8SM OVC005 05/04 A3005 RMK AO2 SLP179 T00500039 400720044
Loading
Personal Weather Stations






























Interactive Weather Map New forecast layout! Learn more

10-Day Weather Forecast

Advertisements
Track Severe Weather on mobile